createdAt,value
2018-04-04T00:00:18.539Z,13.60
2018-04-04T00:02:46.766Z,13.50
2018-04-04T00:05:14.211Z,13.40
2018-04-04T00:07:41.696Z,13.40
2018-04-04T00:10:09.146Z,13.40
2018-04-04T00:12:36.587Z,13.40
2018-04-04T00:15:04.055Z,13.30
2018-04-04T00:17:31.507Z,13.40
2018-04-04T00:19:58.957Z,13.40
2018-04-04T00:22:26.406Z,13.30
2018-04-04T00:24:53.856Z,13.20
2018-04-04T00:27:21.311Z,13.10
2018-04-04T00:29:48.746Z,13.10
2018-04-04T00:32:16.955Z,13.00
2018-04-04T00:34:44.411Z,13.00
2018-04-04T00:37:11.880Z,13.00
2018-04-04T00:39:39.345Z,13.00
2018-04-04T00:42:06.783Z,12.90
2018-04-04T00:44:34.262Z,12.90
2018-04-04T00:47:01.701Z,12.90
2018-04-04T00:49:29.151Z,12.90
2018-04-04T00:51:56.596Z,12.80
2018-04-04T00:54:24.035Z,12.70
2018-04-04T00:56:51.475Z,12.70
2018-04-04T00:59:19.680Z,12.60
2018-04-04T01:01:47.143Z,12.60
2018-04-04T01:04:14.600Z,12.60
2018-04-04T01:06:42.041Z,12.60
2018-04-04T01:09:10.007Z,12.50
2018-04-04T01:11:38.333Z,12.40
2018-04-04T01:14:05.775Z,12.40
2018-04-04T01:16:33.223Z,12.30
2018-04-04T01:19:01.125Z,12.30
2018-04-04T01:21:28.584Z,12.40
2018-04-04T01:23:56.023Z,12.40
2018-04-04T01:26:23.495Z,12.30
2018-04-04T01:28:50.935Z,12.20
2018-04-04T01:31:18.384Z,12.20
2018-04-04T01:33:45.831Z,12.10
2018-04-04T01:36:13.280Z,12.10
2018-04-04T01:38:40.737Z,12.10
2018-04-04T01:41:08.172Z,12.00
2018-04-04T01:43:36.655Z,11.90
2018-04-04T01:46:18.395Z,11.90
2018-04-04T01:48:45.855Z,11.80
2018-04-04T01:51:13.303Z,11.80
2018-04-04T01:53:40.742Z,11.70
2018-04-04T01:56:08.200Z,11.60
2018-04-04T01:58:36.431Z,11.70
2018-04-04T02:01:04.655Z,11.40
2018-04-04T02:03:32.101Z,11.30
2018-04-04T02:05:59.554Z,11.30
2018-04-04T02:08:27.232Z,11.20
2018-04-04T02:10:54.719Z,11.20
2018-04-04T02:13:22.138Z,11.10
2018-04-04T02:15:50.043Z,11.10
2018-04-04T02:18:17.507Z,11.10
2018-04-04T02:20:44.952Z,11.10
2018-04-04T02:23:13.919Z,11.10
2018-04-04T02:25:41.370Z,11.10
2018-04-04T02:28:08.822Z,11.10
2018-04-04T02:30:36.268Z,11.10
2018-04-04T02:33:03.719Z,11.10
2018-04-04T02:35:31.177Z,11.20
2018-04-04T02:37:58.640Z,11.20
2018-04-04T02:40:26.083Z,11.20
2018-04-04T02:42:53.539Z,11.10
2018-04-04T02:45:21.747Z,11.10
2018-04-04T02:47:49.199Z,11.10
2018-04-04T02:50:16.650Z,11.10
2018-04-04T02:52:44.106Z,11.00
2018-04-04T02:55:11.555Z,11.00
2018-04-04T02:57:39.602Z,11.00
2018-04-04T03:00:07.827Z,11.00
2018-04-04T03:02:35.952Z,11.00
2018-04-04T03:05:04.171Z,11.10
2018-04-04T03:07:31.615Z,11.00
2018-04-04T03:09:59.069Z,11.10
2018-04-04T03:12:26.527Z,11.10
2018-04-04T03:14:53.967Z,11.10
2018-04-04T03:17:21.425Z,11.10
2018-04-04T03:19:48.863Z,11.10
2018-04-04T03:22:17.088Z,11.10
2018-04-04T03:24:44.528Z,11.10
2018-04-04T03:27:11.981Z,11.10
2018-04-04T03:29:39.443Z,11.10
2018-04-04T03:32:06.886Z,11.10
2018-04-04T03:34:34.325Z,11.10
2018-04-04T03:37:02.564Z,11.10
2018-04-04T03:39:30.012Z,11.10
2018-04-04T03:41:57.457Z,11.20
2018-04-04T03:44:24.906Z,11.20
2018-04-04T03:46:52.363Z,11.20
2018-04-04T03:49:19.819Z,11.10
2018-04-04T03:51:47.256Z,10.90
2018-04-04T03:54:15.059Z,10.70
2018-04-04T03:56:42.499Z,10.50
2018-04-04T03:59:09.951Z,10.20
2018-04-04T04:01:37.407Z,10.20
2018-04-04T04:04:04.847Z,10.10
2018-04-04T04:06:32.295Z,10.00
2018-04-04T04:09:00.508Z,9.90
2018-04-04T04:11:28.040Z,9.80
2018-04-04T04:13:55.492Z,9.90
2018-04-04T04:16:22.939Z,9.80
2018-04-04T04:18:51.142Z,9.80
2018-04-04T04:21:18.612Z,9.80
2018-04-04T04:23:46.047Z,9.80
2018-04-04T04:26:13.488Z,9.90
2018-04-04T04:28:41.704Z,10.30
2018-04-04T04:31:09.151Z,10.30
2018-04-04T04:33:36.600Z,10.40
2018-04-04T04:36:04.044Z,10.30
2018-04-04T04:38:31.500Z,10.50
2018-04-04T04:40:58.942Z,10.60
2018-04-04T04:43:27.164Z,10.30
2018-04-04T04:45:54.630Z,10.30
2018-04-04T04:48:22.080Z,10.50
2018-04-04T04:50:49.531Z,10.60
2018-04-04T04:53:16.987Z,10.50
2018-04-04T04:55:44.431Z,10.50
2018-04-04T04:58:11.887Z,10.30
2018-04-04T05:00:39.476Z,10.40
2018-04-04T05:03:06.923Z,10.50
2018-04-04T05:05:34.363Z,10.60
2018-04-04T05:08:02.307Z,10.80
2018-04-04T05:10:29.754Z,11.00
2018-04-04T05:12:57.983Z,11.00
2018-04-04T05:15:25.436Z,11.00
2018-04-04T05:17:52.898Z,10.90
2018-04-04T05:20:20.331Z,10.80
2018-04-04T05:22:47.778Z,10.80
2018-04-04T05:25:15.231Z,10.90
2018-04-04T05:27:43.360Z,10.70
2018-04-04T05:30:10.818Z,10.80
2018-04-04T05:32:38.259Z,10.90
2018-04-04T05:35:05.711Z,10.90
2018-04-04T05:37:33.212Z,10.70
2018-04-04T05:40:01.431Z,11.00
2018-04-04T05:42:28.876Z,11.00
2018-04-04T05:44:56.329Z,11.10
2018-04-04T05:47:23.770Z,11.20
2018-04-04T05:49:51.975Z,11.40
2018-04-04T05:52:19.443Z,11.40
2018-04-04T05:54:47.331Z,11.30
2018-04-04T05:57:14.783Z,11.10
2018-04-04T05:59:42.232Z,11.10
2018-04-04T06:02:09.674Z,11.10
2018-04-04T06:04:37.115Z,10.90
2018-04-04T06:07:04.577Z,10.90
2018-04-04T06:09:32.462Z,10.80
2018-04-04T06:11:59.919Z,10.80
2018-04-04T06:14:27.359Z,10.80
2018-04-04T06:16:54.811Z,10.90
2018-04-04T06:19:22.256Z,10.90
2018-04-04T06:21:49.708Z,11.00
2018-04-04T06:24:17.143Z,10.90
2018-04-04T06:26:45.367Z,11.10
2018-04-04T06:29:12.812Z,11.10
2018-04-04T06:31:40.264Z,11.30
2018-04-04T06:34:07.712Z,11.50
2018-04-04T06:36:35.156Z,11.70
2018-04-04T06:39:03.380Z,11.70
2018-04-04T06:41:30.828Z,11.70
2018-04-04T06:43:58.283Z,11.50
2018-04-04T06:46:25.728Z,11.30
2018-04-04T06:48:53.170Z,11.10
2018-04-04T06:51:20.610Z,11.10
2018-04-04T06:53:48.827Z,10.90
2018-04-04T06:56:16.290Z,10.90
2018-04-04T06:58:43.731Z,10.90
2018-04-04T07:01:11.188Z,11.10
2018-04-04T07:03:38.626Z,11.50
2018-04-04T07:06:06.080Z,12.00
2018-04-04T07:08:33.527Z,12.60
2018-04-04T07:11:02.181Z,13.10
2018-04-04T07:13:30.396Z,13.50
2018-04-04T07:15:57.845Z,13.50
2018-04-04T07:18:26.067Z,13.70
2018-04-04T07:20:53.515Z,13.70
2018-04-04T07:23:20.977Z,13.50
2018-04-04T07:25:48.417Z,13.20
2018-04-04T07:28:15.855Z,12.90
2018-04-04T07:30:43.319Z,12.50
2018-04-04T07:33:10.770Z,12.60
2018-04-04T07:35:38.982Z,15.00
2018-04-04T07:38:06.444Z,15.00
2018-04-04T07:40:33.895Z,16.60
2018-04-04T07:43:01.707Z,17.50
2018-04-04T07:45:29.931Z,16.80
2018-04-04T07:47:57.379Z,16.80
2018-04-04T07:50:24.832Z,17.10
2018-04-04T07:52:52.283Z,16.60
2018-04-04T07:55:19.719Z,16.30
2018-04-04T07:57:47.175Z,15.90
2018-04-04T08:00:14.615Z,16.20
2018-04-04T08:02:42.843Z,15.40
2018-04-04T08:05:10.289Z,15.40
2018-04-04T08:07:37.748Z,14.80
2018-04-04T08:10:05.725Z,14.20
2018-04-04T08:12:33.183Z,14.10
2018-04-04T08:15:00.632Z,14.10
2018-04-04T08:17:28.089Z,14.10
2018-04-04T08:19:56.007Z,13.90
2018-04-04T08:22:23.410Z,14.40
2018-04-04T08:24:51.555Z,15.50
2018-04-04T08:27:19.775Z,16.50
2018-04-04T08:29:47.223Z,16.50
2018-04-04T08:32:14.674Z,17.00
2018-04-04T08:34:42.193Z,17.30
2018-04-04T08:37:09.564Z,17.10
2018-04-04T08:39:37.015Z,16.90
2018-04-04T08:42:05.231Z,15.40
2018-04-04T08:44:32.687Z,15.40
2018-04-04T08:47:00.131Z,16.00
2018-04-04T08:49:28.340Z,15.80
2018-04-04T08:51:55.794Z,15.80
2018-04-04T08:54:23.332Z,15.50
2018-04-04T08:56:50.780Z,15.30
2018-04-04T08:59:18.234Z,15.50
2018-04-04T09:01:45.671Z,15.20
2018-04-04T09:04:13.119Z,15.20
2018-04-04T09:06:41.339Z,15.30
2018-04-04T09:09:09.234Z,15.20
2018-04-04T09:11:36.679Z,15.60
2018-04-04T09:14:04.131Z,16.20
2018-04-04T09:16:31.583Z,16.60
2018-04-04T09:18:59.031Z,17.10
2018-04-04T09:21:26.472Z,17.70
2018-04-04T09:23:53.930Z,18.10
2018-04-04T09:26:21.367Z,18.30
2018-04-04T09:28:48.816Z,18.50
2018-04-04T09:31:17.037Z,18.30
2018-04-04T09:33:44.479Z,18.30
2018-04-04T09:36:11.956Z,18.60
2018-04-04T09:38:39.404Z,18.40
2018-04-04T09:41:06.867Z,19.00
2018-04-04T09:43:34.319Z,19.10
2018-04-04T09:46:01.771Z,19.70
2018-04-04T09:48:29.227Z,20.00
2018-04-04T09:50:56.688Z,20.00
2018-04-04T09:53:24.140Z,20.40
2018-04-04T09:55:51.586Z,20.10
2018-04-04T09:58:19.038Z,19.40
2018-04-04T10:00:48.431Z,20.10
2018-04-04T10:03:15.892Z,20.00
2018-04-04T10:05:43.399Z,20.80
2018-04-04T10:08:10.847Z,20.30
2018-04-04T10:10:38.294Z,20.60
2018-04-04T10:13:05.750Z,21.10
2018-04-04T10:15:33.216Z,20.60
2018-04-04T10:18:00.667Z,20.60
2018-04-04T10:20:28.110Z,21.40
2018-04-04T10:22:55.577Z,20.10
2018-04-04T10:25:23.017Z,19.40
2018-04-04T10:27:50.472Z,18.40
2018-04-04T10:30:17.914Z,18.40
2018-04-04T10:32:45.727Z,18.70
2018-04-04T10:35:13.184Z,18.60
2018-04-04T10:37:40.623Z,18.90
2018-04-04T10:40:08.111Z,19.10
2018-04-04T10:42:35.526Z,19.50
2018-04-04T10:45:04.190Z,19.10
2018-04-04T10:47:32.391Z,19.60
2018-04-04T10:49:59.838Z,19.60
2018-04-04T10:52:27.387Z,19.10
2018-04-04T10:54:54.840Z,19.40
2018-04-04T10:57:22.279Z,19.20
2018-04-04T10:59:50.499Z,19.20
2018-04-04T11:02:17.943Z,19.20
2018-04-04T11:04:45.402Z,19.80
2018-04-04T11:07:12.842Z,19.80
2018-04-04T11:09:40.296Z,19.80
2018-04-04T11:12:07.743Z,18.90
2018-04-04T11:14:35.964Z,17.50
2018-04-04T11:17:03.407Z,17.40
2018-04-04T11:19:30.863Z,16.40
2018-04-04T11:21:58.316Z,15.80
2018-04-04T11:24:26.372Z,15.00
2018-04-04T11:26:53.820Z,14.00
2018-04-04T11:29:22.032Z,13.30
2018-04-04T11:31:49.487Z,13.30
2018-04-04T11:34:16.938Z,13.30
2018-04-04T11:36:44.388Z,13.30
2018-04-04T11:39:11.837Z,13.30
2018-04-04T11:41:39.307Z,13.10
2018-04-04T11:44:06.747Z,13.10
2018-04-04T11:46:34.215Z,13.00
2018-04-04T11:49:01.656Z,13.30
2018-04-04T11:51:29.132Z,13.30
2018-04-04T11:53:57.302Z,13.70
2018-04-04T11:56:24.751Z,13.60
2018-04-04T11:58:52.191Z,13.60
2018-04-04T12:01:20.423Z,13.70
2018-04-04T12:03:47.854Z,13.70
2018-04-04T12:06:15.304Z,13.80
2018-04-04T12:08:42.795Z,13.90
2018-04-04T12:11:10.231Z,13.80
2018-04-04T12:13:37.667Z,13.90
2018-04-04T12:16:05.112Z,13.90
2018-04-04T12:18:32.560Z,14.30
2018-04-04T12:21:00.764Z,15.70
2018-04-04T12:23:28.220Z,15.70
2018-04-04T12:25:55.704Z,16.30
2018-04-04T12:28:23.155Z,17.00
2018-04-04T12:30:50.608Z,17.30
2018-04-04T12:33:18.064Z,17.40
2018-04-04T12:35:45.508Z,17.70
2018-04-04T12:38:13.318Z,18.20
2018-04-04T12:40:40.755Z,18.20
2018-04-04T12:43:08.199Z,18.30
2018-04-04T12:45:35.647Z,17.80
2018-04-04T12:48:03.092Z,17.30
2018-04-04T12:50:31.771Z,17.40
2018-04-04T12:52:59.208Z,17.20
2018-04-04T12:55:27.491Z,16.30
2018-04-04T12:57:54.888Z,16.30
2018-04-04T13:00:23.016Z,16.30
2018-04-04T13:02:51.232Z,15.60
2018-04-04T13:05:18.675Z,15.60
2018-04-04T13:07:46.115Z,15.70
2018-04-04T13:10:13.572Z,15.40
2018-04-04T13:12:42.846Z,14.80
2018-04-04T13:15:10.342Z,14.60
2018-04-04T13:17:37.787Z,14.30
2018-04-04T13:20:05.251Z,14.40
2018-04-04T13:22:32.691Z,14.20
2018-04-04T13:25:00.918Z,13.80
2018-04-04T13:27:28.367Z,13.70
2018-04-04T13:29:55.862Z,13.60
2018-04-04T13:32:23.247Z,13.50
2018-04-04T13:34:53.670Z,13.30
2018-04-04T13:37:21.871Z,12.80
2018-04-04T13:39:49.324Z,12.80
2018-04-04T13:42:16.820Z,12.30
2018-04-04T13:44:44.256Z,12.00
2018-04-04T13:47:11.715Z,11.70
2018-04-04T13:49:39.163Z,11.40
2018-04-04T13:52:06.604Z,11.30
2018-04-04T13:54:34.061Z,11.40
2018-04-04T13:57:01.503Z,11.40
2018-04-04T13:59:28.954Z,11.40
2018-04-04T14:01:56.404Z,11.40
2018-04-04T14:04:24.625Z,11.00
2018-04-04T14:06:52.079Z,11.00
2018-04-04T14:09:19.525Z,10.90
2018-04-04T14:11:46.962Z,10.70
2018-04-04T14:14:14.415Z,10.70
2018-04-04T14:16:41.851Z,10.80
2018-04-04T14:19:10.076Z,11.00
2018-04-04T14:21:37.527Z,10.90
2018-04-04T14:24:04.979Z,11.00
2018-04-04T14:26:32.419Z,10.90
2018-04-04T14:28:59.926Z,10.80
2018-04-04T14:31:27.348Z,10.90
2018-04-04T14:33:54.806Z,11.00
2018-04-04T14:36:22.293Z,11.30
2018-04-04T14:38:49.695Z,11.80
2018-04-04T14:41:17.915Z,12.40
2018-04-04T14:43:45.364Z,12.40
2018-04-04T14:46:13.663Z,12.50
2018-04-04T14:48:41.111Z,12.80
2018-04-04T14:51:08.557Z,13.20
2018-04-04T14:53:36.011Z,13.20
2018-04-04T14:56:03.469Z,13.60
2018-04-04T14:58:30.923Z,14.30
2018-04-04T15:00:58.369Z,14.90
2018-04-04T15:03:25.812Z,15.80
2018-04-04T15:05:53.264Z,16.00
2018-04-04T15:08:20.707Z,16.40
2018-04-04T15:10:48.939Z,17.30
2018-04-04T15:13:16.388Z,17.20
2018-04-04T15:15:44.196Z,16.50
2018-04-04T15:18:12.399Z,15.70
2018-04-04T15:20:39.855Z,15.70
2018-04-04T15:23:07.312Z,15.30
2018-04-04T15:25:34.750Z,14.80
2018-04-04T15:28:02.971Z,13.50
2018-04-04T15:30:30.719Z,13.50
2018-04-04T15:32:58.176Z,13.40
2018-04-04T15:35:25.616Z,13.80
2018-04-04T15:37:53.063Z,14.40
2018-04-04T15:40:21.335Z,14.50
2018-04-04T15:42:49.555Z,14.30
2018-04-04T15:45:17.028Z,14.30
2018-04-04T15:47:44.533Z,14.60
2018-04-04T15:50:12.744Z,13.90
2018-04-04T15:52:40.215Z,13.90
2018-04-04T15:55:08.591Z,13.50
2018-04-04T15:57:36.039Z,13.70
2018-04-04T16:00:03.492Z,13.40
2018-04-04T16:02:31.285Z,13.00
2018-04-04T16:04:58.740Z,12.50
2018-04-04T16:07:26.195Z,12.30
2018-04-04T16:09:53.648Z,12.40
2018-04-04T16:12:21.095Z,12.20
2018-04-04T16:14:48.540Z,12.20
2018-04-04T16:17:15.999Z,12.10
2018-04-04T16:19:43.452Z,12.20
2018-04-04T16:22:10.930Z,12.30
2018-04-04T16:24:38.375Z,12.50
2018-04-04T16:27:05.816Z,12.00
2018-04-04T16:29:33.275Z,11.80
2018-04-04T16:32:00.731Z,11.50
2018-04-04T16:34:28.193Z,11.60
2018-04-04T16:36:55.643Z,11.90
2018-04-04T16:39:23.103Z,12.10
2018-04-04T16:41:50.839Z,11.90
2018-04-04T16:44:18.287Z,11.70
2018-04-04T16:46:46.507Z,11.70
2018-04-04T16:49:13.969Z,11.60
2018-04-04T16:51:41.412Z,11.50
2018-04-04T16:54:08.864Z,11.50
2018-04-04T16:56:36.386Z,11.40
2018-04-04T16:59:04.604Z,11.40
2018-04-04T17:01:32.035Z,11.40
2018-04-04T17:03:59.487Z,11.30
2018-04-04T17:06:26.936Z,11.40
2018-04-04T17:08:55.179Z,11.10
2018-04-04T17:11:22.614Z,11.10
2018-04-04T17:13:50.056Z,11.10
2018-04-04T17:16:17.519Z,11.10
2018-04-04T17:18:44.959Z,11.00
2018-04-04T17:21:12.414Z,11.00
2018-04-04T17:23:39.854Z,11.00
2018-04-04T17:26:08.092Z,10.60
2018-04-04T17:28:35.531Z,10.60
2018-04-04T17:31:02.987Z,10.40
2018-04-04T17:33:30.431Z,10.30
2018-04-04T17:35:57.899Z,10.40
2018-04-04T17:38:25.341Z,10.30
2018-04-04T17:40:52.798Z,10.40
2018-04-04T17:43:20.255Z,10.50
2018-04-04T17:45:47.758Z,10.60
2018-04-04T17:48:15.152Z,10.60
2018-04-04T17:50:42.598Z,10.50
2018-04-04T17:53:10.808Z,10.40
2018-04-04T17:55:38.260Z,10.30
2018-04-04T17:58:05.703Z,10.40
2018-04-04T18:00:33.162Z,10.40
2018-04-04T18:03:00.607Z,10.40
2018-04-04T18:05:28.059Z,10.30
2018-04-04T18:07:56.280Z,10.30
2018-04-04T18:10:23.731Z,10.30
2018-04-04T18:12:51.191Z,10.40
2018-04-04T18:15:18.713Z,10.20
2018-04-04T18:17:46.156Z,10.10
2018-04-04T18:20:14.365Z,9.90
2018-04-04T18:22:42.648Z,9.90
2018-04-04T18:25:10.108Z,9.90
2018-04-04T18:27:37.556Z,9.80
2018-04-04T18:30:05.009Z,9.90
2018-04-04T18:32:32.443Z,9.90
2018-04-04T18:35:00.651Z,9.80
2018-04-04T18:37:28.135Z,9.80
2018-04-04T18:39:55.591Z,9.80
2018-04-04T18:42:23.576Z,9.70
2018-04-04T18:44:50.991Z,9.70
2018-04-04T18:47:18.427Z,9.70
2018-04-04T18:49:46.320Z,9.50
2018-04-04T18:52:13.671Z,9.50
2018-04-04T18:54:41.116Z,9.50
2018-04-04T18:57:08.564Z,9.50
2018-04-04T18:59:36.010Z,9.50
2018-04-04T19:02:04.222Z,9.40
2018-04-04T19:04:31.662Z,9.40
2018-04-04T19:06:59.152Z,9.30
2018-04-04T19:09:26.575Z,9.30
2018-04-04T19:11:54.014Z,9.20
2018-04-04T19:14:21.459Z,9.10
2018-04-04T19:16:49.662Z,9.10
2018-04-04T19:19:17.108Z,9.10
2018-04-04T19:21:44.551Z,9.10
2018-04-04T19:24:12.772Z,8.90
2018-04-04T19:26:40.225Z,8.90
2018-04-04T19:29:07.656Z,8.90
2018-04-04T19:31:35.102Z,9.00
2018-04-04T19:34:02.546Z,9.00
2018-04-04T19:36:30.779Z,8.90
2018-04-04T19:38:58.223Z,8.90
2018-04-04T19:41:25.665Z,9.00
2018-04-04T19:43:53.099Z,9.00
2018-04-04T19:46:20.547Z,9.00
2018-04-04T19:48:48.786Z,8.90
2018-04-04T19:51:16.227Z,8.90
2018-04-04T19:53:43.692Z,8.90
2018-04-04T19:56:11.152Z,8.90
2018-04-04T19:58:39.962Z,8.90
2018-04-04T20:01:07.395Z,8.90
2018-04-04T20:03:34.847Z,8.60
2018-04-04T20:06:02.295Z,8.40
2018-04-04T20:08:29.747Z,8.20
2018-04-04T20:10:57.653Z,8.10
2018-04-04T20:13:25.199Z,8.00
2018-04-04T20:15:52.636Z,8.30
2018-04-04T20:18:20.095Z,8.40
2018-04-04T20:20:47.527Z,8.10
2018-04-04T20:23:14.971Z,8.00
2018-04-04T20:25:42.832Z,7.80
2018-04-04T20:28:11.043Z,7.70
2018-04-04T20:30:38.483Z,7.70
2018-04-04T20:33:05.928Z,8.00
2018-04-04T20:35:33.371Z,8.30
2018-04-04T20:38:02.011Z,8.50
2018-04-04T20:40:29.447Z,8.50
2018-04-04T20:42:56.888Z,8.30
2018-04-04T20:45:24.340Z,8.20
2018-04-04T20:47:51.771Z,8.20
2018-04-04T20:50:19.212Z,8.40
2018-04-04T20:52:47.426Z,8.60
2018-04-04T20:55:14.869Z,8.60
2018-04-04T20:57:43.077Z,8.60
2018-04-04T21:00:10.537Z,8.60
2018-04-04T21:02:37.978Z,8.60
2018-04-04T21:05:05.411Z,8.60
2018-04-04T21:07:33.621Z,8.80
2018-04-04T21:10:01.063Z,8.80
2018-04-04T21:12:28.512Z,8.90
2018-04-04T21:14:56.731Z,8.80
2018-04-04T21:17:24.163Z,8.70
2018-04-04T21:19:51.603Z,8.80
2018-04-04T21:22:19.051Z,8.80
2018-04-04T21:24:47.268Z,8.90
2018-04-04T21:27:14.720Z,8.90
2018-04-04T21:29:42.160Z,8.90
2018-04-04T21:32:09.603Z,8.90
2018-04-04T21:34:37.063Z,8.90
2018-04-04T21:37:04.511Z,8.90
2018-04-04T21:39:32.723Z,8.90
2018-04-04T21:42:00.181Z,8.90
2018-04-04T21:44:28.316Z,9.00
2018-04-04T21:46:56.563Z,8.90
2018-04-04T21:49:24.779Z,8.90
2018-04-04T21:51:52.223Z,8.90
2018-04-04T21:54:20.427Z,8.90
2018-04-04T21:56:47.877Z,8.90
2018-04-04T21:59:15.359Z,8.90
2018-04-04T22:01:43.248Z,8.90
2018-04-04T22:04:11.447Z,9.00
2018-04-04T22:06:39.651Z,9.10
2018-04-04T22:09:07.113Z,9.10
2018-04-04T22:11:34.551Z,9.00
2018-04-04T22:14:02.583Z,8.90
2018-04-04T22:16:30.021Z,9.00
2018-04-04T22:18:57.469Z,9.00
2018-04-04T22:21:25.360Z,8.90
2018-04-04T22:23:54.643Z,8.90
2018-04-04T22:26:22.087Z,8.90
2018-04-04T22:28:49.537Z,8.70
2018-04-04T22:31:16.979Z,8.70
2018-04-04T22:33:44.418Z,8.60
2018-04-04T22:36:12.632Z,8.60
2018-04-04T22:38:40.084Z,8.60
2018-04-04T22:41:07.533Z,8.60
2018-04-04T22:43:34.969Z,8.60
2018-04-04T22:46:02.419Z,8.50
2018-04-04T22:48:30.631Z,8.40
2018-04-04T22:50:58.091Z,8.40
2018-04-04T22:53:25.536Z,8.50
2018-04-04T22:55:52.975Z,8.60
2018-04-04T22:58:20.451Z,8.70
2018-04-04T23:00:47.883Z,8.80
2018-04-04T23:03:16.105Z,8.90
2018-04-04T23:05:43.554Z,8.90
2018-04-04T23:08:14.697Z,8.90
2018-04-04T23:10:42.136Z,8.90
2018-04-04T23:13:09.595Z,8.80
2018-04-04T23:15:37.066Z,8.80
2018-04-04T23:18:04.514Z,8.80
2018-04-04T23:20:31.947Z,8.80
2018-04-04T23:22:59.391Z,8.90
2018-04-04T23:25:27.595Z,9.10
2018-04-04T23:27:55.067Z,9.10
2018-04-04T23:30:22.510Z,9.10
2018-04-04T23:32:49.939Z,9.10
2018-04-04T23:35:18.143Z,9.10
2018-04-04T23:37:45.579Z,9.10
2018-04-04T23:40:13.022Z,9.10
2018-04-04T23:42:41.273Z,9.20
2018-04-04T23:45:08.714Z,9.20
2018-04-04T23:47:36.169Z,9.20
2018-04-04T23:50:03.599Z,9.30
2018-04-04T23:52:31.048Z,9.30
2018-04-04T23:54:58.486Z,9.20
2018-04-04T23:57:26.700Z,9.20
2018-04-04T23:59:54.153Z,9.10
